Česky Dansk Deutsch English Español Suomi Français Magyar Italiano Nederlands norsk Polski Português svenska Türkçe

 

Het Weer

Bueckeburg (Duitsland)

22:20, 21 augustus 2016 (GMT)

NWNNE
WE
SWSSE
Home            
Bueckeburg Wunstorf Hannover Diepholz Guetersloh Celle Paderborn / Lippstadt Bergen Bremen Braunschweig Muenster / Osnabrueck Kassel / Calden Lemwerder Fassberg Hopsten Rheine-Bentlage Meppen-Mil Fritzlar Nordhorn Dortmund / Wickede Hamburg-Finkenwerder Twenthe Jever

Om een weerknop op uw website of weblog te plaatsen, copieer onderstaande code en plak die in uw pagina. In het eerste vakje staat HTML-code, in het tweede vakje UBB-code.


Add to Google

Details

Wind speed:3 bf, 9 kn, 4.6 m/s, 10.4 miles/h, 16.7 km/h
Wind direction:W, 260°
Visibility:Greater than 10000 m, 10 km, 32800 ft, 6.2 miles
Clouds:Ein wenig bewölkt at 1300 ft, 396 m
Durchbrochene Bewölkung at 4500 ft, 1372 m
Temperature:17°C, 63°F
Dew-point:14°C, 57°F
Atmospheric pressure:1020 hPa, 765.1 mmHg, 30.12 inHg, 1.007 atm
Relative humidity:82.5 %
METAR:ETHB 212220Z 26009KT 9999 FEW013 BKN045 17/14 Q1020 BLU

Snelkoppelingen

Actuele weersinformatie van de hele wereld. Voeg locaties toe met het plus (+) symbool. Deze snelkoppelingen kunnen worden toegevoegd aan Google.

Lid van de Technetium groep

website free tracking
StatCounter NetStat W3C Validator

05-07-2022 02:47:23
astro.technetium.be money.technetium.be phote.technetium.be tafeltennistafel.technetium.be www.ligfiets.net